Time;durP1;ratioP1;P1;durP2;ratioP2;P2;SDS_P1;SDS_P2;PMS_P1;PMS_P2;Temp;Humidity;BMP_temperature;BMP_pressure;BME280_temperature;BME280_humidity;BME280_pressure;Samples;Min_cycle;Max_cycle;Signal;HPM_P1;HPM_P2
2022/01/19 00:00:33;;;;;;;;;;;6.40;99.90;;;5.92;100.00;102225.41;4973158;28;20410;-74
2022/01/19 00:03:15;;;;;;;;;;;6.30;99.90;;;5.89;100.00;102225.34;4959511;28;20406;-73
2022/01/19 00:05:42;;;;;;;;;;;6.30;99.90;;;5.88;100.00;102228.81;4930186;29;19931;-73
2022/01/19 00:08:16;;;;;;;;;;;8.60;99.90;;;5.83;100.00;102230.38;4945937;29;19965;-74
2022/01/19 00:10:43;;;;;;;;;;;6.30;99.90;;;5.83;100.00;102222.56;4961316;28;19930;-74
2022/01/19 00:13:10;;;;;;;;;;;8.20;99.90;;;5.81;100.00;102212.09;4961204;28;19930;-73
2022/01/19 00:15:37;;;;;;;;;;;6.30;99.90;;;5.81;100.00;102192.91;4946486;29;20301;-73
2022/01/19 00:18:05;;;;;;;;;;;6.50;99.90;;;5.79;100.00;102184.16;4946629;29;19930;-75
2022/01/19 00:20:33;;;;;;;;;;;6.20;99.90;;;5.75;100.00;102170.13;4947810;28;20036;-73
2022/01/19 00:23:03;;;;;;;;;;;6.40;99.90;;;5.76;100.00;102164.03;4961534;28;20333;-74
2022/01/19 00:25:30;;;;;;;;;;;6.80;99.90;;;5.75;100.00;102170.13;4947211;28;20275;-75
2022/01/19 00:27:58;;;;;;;;;;;6.20;99.90;;;5.78;100.00;102165.00;4947511;29;19937;-75
2022/01/19 00:30:26;;;;;;;;;;;6.10;99.90;;;5.81;100.00;102164.16;4963908;28;19931;-75
2022/01/19 00:32:54;;;;;;;;;;;6.20;99.90;;;5.80;100.00;102170.22;4947040;28;19966;-74
2022/01/19 00:35:24;;;;;;;;;;;6.20;99.90;;;5.77;100.00;102172.78;4947012;28;19930;-75
2022/01/19 00:37:51;;;;;;;;;;;6.50;99.90;;;5.76;100.00;102189.28;4930890;29;19930;-75
2022/01/19 00:40:18;;;;;;;;;;;8.10;99.90;;;5.80;100.00;102196.34;4929961;29;19927;-75
2022/01/19 00:43:06;;;;;;;;;;;6.20;99.90;;;5.82;100.00;102202.50;4945722;29;19933;-75
2022/01/19 00:45:36;;;;;;;;;;;6.40;99.90;;;5.77;100.00;102191.94;4947061;28;20310;-75
2022/01/19 00:48:23;;;;;;;;;;;6.20;99.90;;;5.77;100.00;102183.22;4917996;28;19988;-75
2022/01/19 00:50:51;;;;;;;;;;;6.10;99.90;;;5.78;100.00;102185.88;5020608;28;19930;-75
2022/01/19 00:53:20;;;;;;;;;;;6.20;99.90;;;5.72;100.00;102177.00;4945965;28;19927;-75
2022/01/19 00:55:47;;;;;;;;;;;7.70;99.90;;;5.72;100.00;102180.50;4946214;28;19935;-75
2022/01/19 00:58:29;;;;;;;;;;;7.00;99.90;;;5.74;100.00;102181.41;4926934;29;20029;-75
2022/01/19 01:00:56;;;;;;;;;;;6.30;99.90;;;5.67;100.00;102166.44;4910889;29;19937;-75
2022/01/19 01:03:23;;;;;;;;;;;6.10;99.90;;;5.62;100.00;102178.47;4926591;29;20557;-75
2022/01/19 01:05:50;;;;;;;;;;;6.80;99.90;;;5.62;100.00;102166.31;4927930;29;19938;-76
2022/01/19 01:08:17;;;;;;;;;;;6.20;99.90;;;5.66;100.00;102157.72;4911247;29;19934;-75
2022/01/19 01:10:45;;;;;;;;;;;7.70;99.90;;;5.68;100.00;102166.47;4927762;29;19931;-75
2022/01/19 01:13:23;;;;;;;;;;;8.70;99.90;;;5.64;100.00;102155.94;4925396;28;19977;-74
2022/01/19 01:16:02;;;;;;;;;;;6.60;99.90;;;5.64;100.00;102156.78;4926335;29;20050;-75
2022/01/19 01:18:32;;;;;;;;;;;6.30;99.90;;;5.61;100.00;102155.81;4912435;29;19947;-76
2022/01/19 01:21:05;;;;;;;;;;;8.80;99.90;;;5.56;100.00;102139.16;4911472;29;19930;-74
2022/01/19 01:23:35;;;;;;;;;;;6.00;99.90;;;5.51;100.00;102139.94;4910158;29;19931;-75
2022/01/19 01:26:04;;;;;;;;;;;5.90;99.90;;;5.46;100.00;102119.78;4910764;29;19985;-75
2022/01/19 01:28:32;;;;;;;;;;;5.90;99.90;;;5.37;100.00;102105.63;4910626;29;19930;-75
2022/01/19 01:30:59;;;;;;;;;;;5.80;99.90;;;5.27;100.00;102095.81;4926259;29;20713;-75
2022/01/19 01:33:29;;;;;;;;;;;5.80;99.90;;;5.18;100.00;102096.47;4909119;29;20025;-75
2022/01/19 01:35:56;;;;;;;;;;;5.80;99.90;;;5.13;100.00;102097.19;4927428;29;20026;-75
2022/01/19 01:38:24;;;;;;;;;;;7.40;99.90;;;5.06;100.00;102097.00;4910751;29;19941;-74
2022/01/19 01:41:13;;;;;;;;;;;6.80;99.90;;;4.98;100.00;102103.75;4913215;29;20306;-75
2022/01/19 01:43:48;;;;;;;;;;;5.80;99.90;;;4.95;100.00;102114.13;4909909;29;20009;-75
2022/01/19 01:46:43;;;;;;;;;;;5.50;99.90;;;4.90;100.00;102133.94;4910529;29;19937;-75
2022/01/19 01:49:05;;;;;;;;;;;7.60;99.90;;;4.82;100.00;102125.91;4913171;29;19931;-75
2022/01/19 01:54:18;;;;;;;;;;;7.50;99.90;;;4.74;100.00;102130.03;4917528;29;19997;-75
2022/01/19 01:56:46;;;;;;;;;;;5.30;99.90;;;4.70;100.00;102125.59;4917872;28;20022;-75
2022/01/19 01:59:13;;;;;;;;;;;5.00;99.90;;;4.67;100.00;102119.41;4910125;29;19974;-75
2022/01/19 02:02:18;;;;;;;;;;;5.10;99.90;;;4.60;100.00;102108.75;4926192;29;19931;-75
2022/01/19 02:04:45;;;;;;;;;;;5.10;99.90;;;4.60;100.00;102094.03;4925017;29;19935;-74
2022/01/19 02:07:32;;;;;;;;;;;6.20;99.90;;;4.51;100.00;102080.72;4925994;28;20307;-75
2022/01/19 02:10:05;;;;;;;;;;;5.00;99.90;;;4.49;100.00;102079.78;4929054;28;19964;-78
2022/01/19 02:23:45;;;;;;;;;;;4.80;99.90;;;4.24;100.00;102053.91;4911602;29;19984;-77
2022/01/19 02:26:21;;;;;;;;;;;5.90;99.90;;;4.14;100.00;102045.78;4941804;29;19935;-77
2022/01/19 02:29:20;;;;;;;;;;;6.70;99.90;;;4.04;100.00;102045.50;4925273;29;19931;-76
2022/01/19 02:36:35;;;;;;;;;;;6.50;99.90;;;3.97;100.00;102043.56;4925805;29;20026;-78
2022/01/19 02:40:23;;;;;;;;;;;4.50;99.90;;;3.81;100.00;102004.03;4912388;29;20445;-77
2022/01/19 02:50:41;;;;;;;;;;;5.40;99.90;;;3.62;100.00;101966.13;4911669;29;19930;-77
2022/01/19 02:53:08;;;;;;;;;;;5.90;99.90;;;3.60;100.00;101952.19;4940576;28;19978;-77
2022/01/19 02:55:36;;;;;;;;;;;4.10;99.90;;;3.58;100.00;101945.16;4927538;29;19930;-75
2022/01/19 02:58:03;;;;;;;;;;;4.60;99.90;;;3.52;100.00;101925.91;4932923;28;20402;-76
2022/01/19 03:08:48;;;;;;;;;;;4.00;99.90;;;3.47;100.00;101911.91;4966661;28;20302;-75
2022/01/19 03:11:20;;;;;;;;;;;1.90;99.90;;;3.45;100.00;101902.28;4951318;28;19970;-75
2022/01/19 03:13:48;;;;;;;;;;;3.90;99.90;;;3.42;100.00;101915.19;4949214;28;19926;-76
2022/01/19 03:16:18;;;;;;;;;;;3.90;99.90;;;3.40;100.00;101904.72;4950586;28;20423;-76
2022/01/19 03:18:47;;;;;;;;;;;3.90;99.90;;;3.36;100.00;101903.78;4934761;28;19930;-76
2022/01/19 03:21:15;;;;;;;;;;;3.90;99.90;;;3.36;100.00;101911.59;4966361;28;19953;-75
2022/01/19 03:23:42;;;;;;;;;;;5.50;99.90;;;3.33;100.00;101903.66;4964988;28;19946;-75
2022/01/19 03:26:09;;;;;;;;;;;3.70;99.90;;;3.33;100.00;101905.38;4966389;28;19930;-76
2022/01/19 03:28:55;;;;;;;;;;;3.80;99.90;;;3.31;100.00;101897.53;4952825;28;19930;-76
2022/01/19 03:31:22;;;;;;;;;;;3.80;99.90;;;3.26;100.00;101879.16;4966269;28;19930;-77
2022/01/19 03:33:50;;;;;;;;;;;4.10;99.90;;;3.27;100.00;101895.69;4933268;28;19980;-77
2022/01/19 03:36:18;;;;;;;;;;;3.70;99.90;;;3.26;100.00;101888.72;4934954;28;19975;-77
2022/01/19 03:38:45;;;;;;;;;;;3.80;99.90;;;3.22;100.00;101881.66;4934647;28;20398;-77
2022/01/19 03:41:11;;;;;;;;;;;6.10;99.90;;;3.22;100.00;101885.13;4965865;28;19926;-77
2022/01/19 03:43:38;;;;;;;;;;;4.90;99.90;;;3.16;100.00;101882.34;4964223;28;19933;-77
2022/01/19 03:46:15;;;;;;;;;;;3.60;99.90;;;3.12;100.00;101883.06;4950783;28;19930;-76
2022/01/19 03:48:52;;;;;;;;;;;4.10;99.90;;;3.10;100.00;101872.63;4950169;28;20587;-77
2022/01/19 03:51:19;;;;;;;;;;;3.70;99.90;;;3.13;100.00;101858.84;4951335;28;19953;-77
2022/01/19 03:53:46;;;;;;;;;;;3.70;99.90;;;3.04;100.00;101841.22;4932659;28;19930;-76
2022/01/19 03:56:14;;;;;;;;;;;3.60;99.90;;;3.06;100.00;101844.78;4927783;29;19931;-76
2022/01/19 03:58:41;;;;;;;;;;;3.60;99.90;;;3.02;100.00;101837.69;4911627;29;19976;-76
2022/01/19 04:01:10;;;;;;;;;;;3.50;99.90;;;2.99;100.00;101835.00;4911823;29;20041;-77
2022/01/19 04:04:01;;;;;;;;;;;5.20;99.90;;;2.93;100.00;101838.28;4895133;29;19938;-76
2022/01/19 04:06:50;;;;;;;;;;;4.60;99.90;;;2.89;100.00;101841.63;4914336;28;19985;-76
2022/01/19 04:09:14;;;;;;;;;;;3.40;99.90;;;2.86;100.00;101830.25;4926952;29;19931;-75
2022/01/19 04:11:41;;;;;;;;;;;3.50;99.90;;;2.82;100.00;101824.94;4896083;29;19931;-75
2022/01/19 04:16:36;;;;;;;;;;;3.40;99.90;;;2.78;100.00;101817.00;4911930;29;19935;-78
2022/01/19 04:19:47;;;;;;;;;;;5.50;99.90;;;2.75;100.00;101819.50;4927424;29;19937;-77
2022/01/19 04:22:18;;;;;;;;;;;3.30;99.90;;;2.78;100.00;101811.81;4927869;28;19935;-76
2022/01/19 04:24:47;;;;;;;;;;;4.30;99.90;;;2.77;100.00;101817.84;4895736;29;19934;-77
2022/01/19 04:30:08;;;;;;;;;;;4.40;99.90;;;2.75;100.00;101814.31;4912464;29;19931;-76
2022/01/19 04:33:04;;;;;;;;;;;3.20;99.90;;;2.69;100.00;101817.59;4928150;29;19931;-77
2022/01/19 05:07:57;;;;;;;;;;;3.10;99.90;;;2.36;100.00;101798.38;4928141;29;19938;-77
2022/01/19 05:15:55;;;;;;;;;;;5.20;99.90;;;2.25;100.00;101778.97;4912211;29;20078;-76
2022/01/19 05:18:23;;;;;;;;;;;2.70;99.90;;;2.22;100.00;101779.72;4894994;29;19956;-78
2022/01/19 05:20:50;;;;;;;;;;;2.80;99.90;;;2.19;100.00;101773.56;4926026;29;19930;-76
2022/01/19 05:23:37;;;;;;;;;;;2.90;99.90;;;2.12;100.00;101777.69;4944316;28;19926;-77
2022/01/19 05:26:04;;;;;;;;;;;2.60;99.90;;;2.11;100.00;101781.09;4910284;29;20396;-77
2022/01/19 05:28:37;;;;;;;;;;;2.70;99.90;;;2.10;100.00;101785.41;4911488;29;19931;-77
2022/01/19 05:31:05;;;;;;;;;;;3.70;99.90;;;2.07;100.00;101790.50;4910638;29;19985;-77
2022/01/19 05:33:32;;;;;;;;;;;2.70;99.90;;;2.03;100.00;101791.25;4909618;29;20013;-77
2022/01/19 05:35:59;;;;;;;;;;;2.60;99.90;;;2.00;100.00;101788.50;4925152;28;19930;-77
2022/01/19 05:38:44;;;;;;;;;;;2.60;99.90;;;1.99;100.00;101791.94;4926658;29;19937;-77
2022/01/19 05:41:32;;;;;;;;;;;2.60;99.90;;;1.95;100.00;101785.78;4930287;29;19953;-79
2022/01/19 05:44:00;;;;;;;;;;;2.60;99.90;;;1.91;100.00;101789.06;4896120;29;19931;-78
2022/01/19 05:46:27;;;;;;;;;;;5.40;99.90;;;1.90;100.00;101795.09;4912557;29;20384;-77
2022/01/19 05:48:54;;;;;;;;;;;3.80;99.90;;;1.91;100.00;101796.00;4925647;29;19931;-76
2022/01/19 05:51:22;;;;;;;;;;;2.60;99.90;;;1.87;100.00;101789.81;4927072;29;20037;-77
2022/01/19 05:53:49;;;;;;;;;;;2.40;99.90;;;1.80;100.00;101793.91;4908893;29;19930;-76
2022/01/19 05:56:17;;;;;;;;;;;2.70;99.90;;;1.83;100.00;101786.22;4909533;29;19973;-75
2022/01/19 05:58:56;;;;;;;;;;;2.50;99.90;;;1.79;100.00;101783.44;4925614;29;19981;-76
2022/01/19 06:01:23;;;;;;;;;;;2.40;99.90;;;1.80;100.00;101785.25;4914551;29;19936;-76
2022/01/19 06:03:52;;;;;;;;;;;3.20;99.90;;;1.78;100.00;101781.69;4944386;29;20307;-75
2022/01/19 06:06:39;;;;;;;;;;;2.30;99.90;;;1.75;100.00;101779.00;4950381;28;19927;-76
2022/01/19 06:09:33;;;;;;;;;;;2.90;99.90;;;1.72;100.00;101790.16;4944007;28;19950;-76
2022/01/19 06:12:04;;;;;;;;;;;2.30;99.90;;;1.70;100.00;101784.00;4943562;29;19930;-76
2022/01/19 06:14:33;;;;;;;;;;;4.40;99.90;;;1.62;100.00;101778.56;4943712;29;19960;-76
2022/01/19 06:17:00;;;;;;;;;;;4.10;99.90;;;1.62;100.00;101775.97;4943283;29;20315;-76
2022/01/19 06:19:28;;;;;;;;;;;2.20;99.90;;;1.57;100.00;101767.13;4928717;28;19934;-75
2022/01/19 06:21:55;;;;;;;;;;;2.40;99.90;;;1.61;100.00;101771.59;4928447;29;20025;-75
2022/01/19 06:24:22;;;;;;;;;;;2.30;99.90;;;1.59;100.00;101775.00;4943700;29;19926;-75
2022/01/19 06:26:49;;;;;;;;;;;2.20;99.90;;;1.56;100.00;101778.34;4943626;29;19937;-76
2022/01/19 06:29:16;;;;;;;;;;;2.20;99.90;;;1.55;100.00;101774.00;4928371;28;19958;-75
2022/01/19 06:31:43;;;;;;;;;;;2.30;99.90;;;1.51;100.00;101774.72;4931770;29;20088;-76
2022/01/19 06:34:13;;;;;;;;;;;4.30;99.90;;;1.50;100.00;101771.22;4934377;28;19930;-76
2022/01/19 06:36:54;;;;;;;;;;;3.70;99.90;;;1.48;100.00;101766.81;4933962;29;19941;-76
2022/01/19 06:39:47;;;;;;;;;;;2.10;99.90;;;1.44;100.00;101754.56;4948669;28;20387;-75
2022/01/19 06:42:14;;;;;;;;;;;2.10;99.90;;;1.42;100.00;101754.53;4932183;29;19934;-75
2022/01/19 06:44:42;;;;;;;;;;;1.90;99.90;;;1.37;100.00;101759.53;4947998;28;19926;-75
2022/01/19 06:47:09;;;;;;;;;;;2.10;99.90;;;1.31;100.00;101754.09;4931733;29;20359;-75
2022/01/19 06:49:37;;;;;;;;;;;2.00;99.90;;;1.32;100.00;101757.59;4947406;28;19970;-76
2022/01/19 06:52:07;;;;;;;;;;;2.40;99.90;;;1.29;100.00;101754.91;4932121;29;20014;-75
2022/01/19 06:54:35;;;;;;;;;;;2.60;99.90;;;1.25;100.00;101747.00;4931689;29;20347;-75
2022/01/19 06:57:03;;;;;;;;;;;1.90;99.90;;;1.23;100.00;101740.84;4933152;28;19956;-75
2022/01/19 06:59:35;;;;;;;;;;;1.80;99.90;;;1.24;100.00;101739.16;4964038;28;20061;-76
2022/01/19 07:02:25;;;;;;;;;;;4.20;99.90;;;1.19;100.00;101746.75;4928385;29;19938;-75
2022/01/19 07:05:00;;;;;;;;;;;1.90;99.90;;;1.18;100.00;101749.31;5007241;28;19933;-76
2022/01/19 07:07:33;;;;;;;;;;;1.80;99.90;;;1.14;100.00;101737.94;4913349;29;19927;-76
2022/01/19 07:10:04;;;;;;;;;;;1.80;99.90;;;1.14;100.00;101743.13;4993517;28;20013;-76
2022/01/19 07:12:31;;;;;;;;;;;1.90;99.90;;;1.15;100.00;101746.59;5010361;28;19942;-75
2022/01/19 07:15:00;;;;;;;;;;;2.10;99.90;;;1.12;100.00;101748.25;5010147;28;19981;-75
2022/01/19 07:17:27;;;;;;;;;;;2.00;99.90;;;1.07;100.00;101742.03;4929514;29;19927;-75
2022/01/19 07:19:54;;;;;;;;;;;1.90;99.90;;;1.10;100.00;101747.31;4927956;28;19937;-75
2022/01/19 07:22:22;;;;;;;;;;;1.90;99.90;;;1.12;100.00;101742.19;4943473;28;19934;-75
2022/01/19 07:24:53;;;;;;;;;;;1.80;99.90;;;1.11;100.00;101743.88;4912849;29;20021;-75
2022/01/19 07:27:20;;;;;;;;;;;1.90;99.90;;;1.03;100.00;101724.59;4944393;28;19931;-75
2022/01/19 07:29:47;;;;;;;;;;;2.00;99.90;;;1.05;100.00;101733.31;4994160;28;19930;-75
2022/01/19 07:32:15;;;;;;;;;;;2.00;99.90;;;1.04;100.00;101731.53;4993871;28;20026;-75
2022/01/19 07:34:42;;;;;;;;;;;1.80;99.90;;;1.02;100.00;101737.47;4994126;28;19939;-74
2022/01/19 07:37:13;;;;;;;;;;;2.70;99.90;;;1.02;100.00;101737.47;4992488;28;20017;-76
2022/01/19 07:39:40;;;;;;;;;;;1.80;99.90;;;1.00;100.00;101734.81;4943493;28;19931;-76
2022/01/19 07:42:07;;;;;;;;;;;1.80;99.90;;;1.03;100.00;101731.47;4993470;28;19931;-76
2022/01/19 07:44:46;;;;;;;;;;;1.80;99.90;;;0.99;100.00;101743.44;5002472;28;20064;-76
2022/01/19 07:47:38;;;;;;;;;;;1.80;99.90;;;1.02;100.00;101740.06;4980729;28;19931;-75
2022/01/19 07:50:38;;;;;;;;;;;1.90;99.90;;;1.01;100.00;101736.59;4927455;29;19993;-75
2022/01/19 07:53:23;;;;;;;;;;;1.70;99.90;;;1.00;100.00;101740.00;4997461;28;19945;-75
2022/01/19 07:56:06;;;;;;;;;;;3.10;99.90;;;1.03;100.00;101745.34;4985421;28;20450;-75
2022/01/19 07:58:59;;;;;;;;;;;1.90;99.90;;;1.04;100.00;101738.41;4930385;28;20677;-76
2022/01/19 08:01:31;;;;;;;;;;;1.80;99.90;;;1.06;100.00;101732.47;5004521;28;20029;-75
2022/01/19 08:04:18;;;;;;;;;;;1.90;99.90;;;0.99;100.00;101731.38;4946318;29;19937;-75
2022/01/19 08:06:45;;;;;;;;;;;3.30;99.90;;;1.02;100.00;101729.72;4945430;28;19930;-76
2022/01/19 08:09:12;;;;;;;;;;;2.50;99.90;;;1.03;100.00;101736.66;4945719;28;19976;-75
2022/01/19 08:11:40;;;;;;;;;;;3.60;99.90;;;1.04;100.00;101741.91;4943559;28;20029;-75
2022/01/19 08:14:21;;;;;;;;;;;1.80;99.90;;;1.06;100.00;101735.06;4930946;29;19934;-76
2022/01/19 08:16:48;;;;;;;;;;;4.00;99.90;;;1.04;100.00;101741.91;4930032;29;19945;-76
2022/01/19 08:19:17;;;;;;;;;;;3.70;99.90;;;1.04;100.00;101739.31;4929971;28;20005;-75
2022/01/19 08:21:44;;;;;;;;;;;2.00;99.90;;;1.04;100.00;101739.31;4946081;28;20472;-75
2022/01/19 08:24:12;;;;;;;;;;;1.90;99.90;;;1.11;100.00;101737.84;4945366;28;19981;-75
2022/01/19 08:26:40;;;;;;;;;;;2.10;99.90;;;1.10;100.00;101741.25;4946017;29;19937;-75
2022/01/19 08:29:12;;;;;;;;;;;2.10;99.90;;;1.12;100.00;101737.88;4957277;28;19927;-75
2022/01/19 08:31:39;;;;;;;;;;;2.10;99.90;;;1.12;100.00;101745.66;4929686;29;19930;-75
2022/01/19 08:34:09;;;;;;;;;;;4.10;99.90;;;1.14;100.00;101753.50;4945609;29;19953;-76
2022/01/19 08:36:54;;;;;;;;;;;1.90;99.90;;;1.11;100.00;101741.31;4947527;29;20619;-76
2022/01/19 08:39:28;;;;;;;;;;;3.20;99.90;;;1.13;100.00;101737.06;4945476;28;19934;-76
2022/01/19 08:41:56;;;;;;;;;;;2.00;99.90;;;1.18;100.00;101745.00;4929935;28;19931;-75
2022/01/19 08:44:23;;;;;;;;;;;2.10;99.90;;;1.23;100.00;101745.19;4929267;29;20684;-76
2022/01/19 08:46:58;;;;;;;;;;;2.10;99.90;;;1.22;100.00;101741.69;4916734;29;19927;-76
2022/01/19 08:50:10;;;;;;;;;;;3.20;99.90;;;1.28;100.00;101728.06;4946192;28;20068;-78
2022/01/19 08:52:56;;;;;;;;;;;2.10;99.90;;;1.35;100.00;101731.75;4945919;28;19938;-76
2022/01/19 08:55:33;;;;;;;;;;;2.30;99.90;;;1.46;100.00;101734.75;4930880;29;19930;-76
2022/01/19 08:58:00;;;;;;;;;;;2.10;99.90;;;1.53;100.00;101726.34;4945871;29;20315;-76
2022/01/19 09:00:27;;;;;;;;;;;-0.10;99.90;;;1.54;100.00;101721.22;4930541;29;20527;-76
2022/01/19 09:02:54;;;;;;;;;;;2.40;99.90;;;1.67;100.00;101712.16;4946069;29;19934;-75
2022/01/19 09:05:21;;;;;;;;;;;3.80;99.90;;;1.67;100.00;101719.94;4930082;29;19937;-76
2022/01/19 09:07:49;;;;;;;;;;;2.70;99.90;;;1.75;100.00;101722.81;4922458;29;19937;-76
2022/01/19 09:10:16;;;;;;;;;;;2.50;99.90;;;1.81;100.00;101710.00;4953151;28;19930;-76
2022/01/19 09:12:43;;;;;;;;;;;2.70;99.90;;;1.86;100.00;101711.88;4977060;28;19926;-77
2022/01/19 09:15:11;;;;;;;;;;;2.50;99.90;;;1.90;100.00;101708.56;4937530;28;20461;-75
2022/01/19 09:17:39;;;;;;;;;;;2.40;99.90;;;1.97;100.00;101724.41;4942765;29;19927;-75
2022/01/19 09:20:08;;;;;;;;;;;2.60;99.90;;;2.03;100.00;101717.66;4976799;28;19926;-75
2022/01/19 09:22:35;;;;;;;;;;;2.70;99.90;;;2.09;100.00;101718.72;4960629;28;19930;-75
2022/01/19 09:25:04;;;;;;;;;;;4.00;99.90;;;2.12;100.00;101713.63;4945470;28;20433;-75
2022/01/19 09:27:32;;;;;;;;;;;2.70;99.90;;;2.19;100.00;101719.91;4974278;28;19981;-77
2022/01/19 09:29:59;;;;;;;;;;;2.90;99.90;;;2.29;100.00;101710.69;4948613;28;20060;-77
2022/01/19 09:32:28;;;;;;;;;;;4.30;99.90;;;2.35;100.00;101708.31;4950668;29;19931;-77
2022/01/19 09:35:06;;;;;;;;;;;3.00;99.90;;;2.45;100.00;101713.78;4954649;28;19931;-76
2022/01/19 09:37:35;;;;;;;;;;;2.90;99.90;;;2.45;100.00;101714.66;4934663;29;20387;-77
2022/01/19 09:40:22;;;;;;;;;;;3.10;99.90;;;2.49;100.00;101706.13;4933690;29;19962;-76
2022/01/19 09:42:50;;;;;;;;;;;3.10;99.90;;;2.55;100.00;101702.84;4946906;28;20414;-76
2022/01/19 09:45:17;;;;;;;;;;;5.00;99.90;;;2.61;100.00;101695.22;4948480;29;20029;-76
2022/01/19 09:47:44;;;;;;;;;;;4.90;99.90;;;2.66;100.00;101684.97;4950538;28;19931;-76
2022/01/19 09:50:11;;;;;;;;;;;4.20;99.90;;;2.76;100.00;101684.41;4932626;29;20353;-75
2022/01/19 09:52:39;;;;;;;;;;;3.50;99.90;;;2.79;100.00;101679.28;4947487;28;19937;-75
2022/01/19 09:55:07;;;;;;;;;;;3.50;99.90;;;2.84;100.00;101674.22;4931637;29;20392;-78
2022/01/19 09:57:34;;;;;;;;;;;3.50;99.90;;;2.87;100.00;101674.31;4931687;29;20306;-76
2022/01/19 10:00:02;;;;;;;;;;;3.80;99.90;;;2.97;100.00;101670.25;4945982;29;19930;-75
2022/01/19 10:02:39;;;;;;;;;;;3.50;99.90;;;3.03;100.00;101662.63;4945938;28;19930;-76
2022/01/19 10:05:09;;;;;;;;;;;5.80;99.90;;;3.10;100.00;101667.16;4945501;29;19954;-76
2022/01/19 10:07:36;;;;;;;;;;;3.70;99.90;;;3.11;100.00;101662.81;4949290;29;19930;-76
2022/01/19 10:10:06;;;;;;;;;;;3.90;99.90;;;3.12;100.00;101652.47;4933364;29;19930;-76
2022/01/19 10:18:22;;;;;;;;;;;4.50;99.90;;;3.51;100.00;101630.06;5009795;28;19937;-77
2022/01/19 10:21:06;;;;;;;;;;;3.90;99.90;;;3.56;100.00;101630.19;4954420;28;19934;-78
2022/01/19 10:23:48;;;;;;;;;;;3.80;99.90;;;3.59;100.00;101640.69;4953280;28;20536;-78
2022/01/19 10:26:23;;;;;;;;;;;4.10;99.90;;;3.60;100.00;101623.34;4952543;29;19934;-77
2022/01/19 10:29:10;;;;;;;;;;;6.30;99.90;;;3.68;100.00;101619.22;4954845;29;19962;-78
2022/01/19 10:31:40;;;;;;;;;;;4.10;99.90;;;3.76;100.00;101620.28;4953160;29;20035;-79
2022/01/19 10:34:19;;;;;;;;;;;5.40;99.90;;;3.86;100.00;101629.19;4934591;29;19966;-78
2022/01/19 10:36:53;;;;;;;;;;;4.30;99.90;;;3.95;100.00;101625.94;4933367;29;19931;-77
2022/01/19 10:39:21;;;;;;;;;;;4.70;99.90;;;3.89;100.00;101610.16;4948756;29;19930;-77
2022/01/19 10:42:04;;;;;;;;;;;4.50;99.90;;;3.92;100.00;101623.25;4949066;29;19936;-78
2022/01/19 10:44:35;;;;;;;;;;;4.60;99.90;;;4.01;100.00;101610.44;4948852;29;19931;-78
2022/01/19 10:47:44;;;;;;;;;;;4.60;99.90;;;4.13;100.00;101609.81;4935558;29;20348;-78
2022/01/19 10:50:15;;;;;;;;;;;4.50;99.90;;;4.15;100.00;101602.06;4934075;28;20669;-78
2022/01/19 10:52:46;;;;;;;;;;;6.30;99.90;;;4.26;100.00;101609.25;4932088;29;19937;-78
2022/01/19 10:55:19;;;;;;;;;;;4.90;99.90;;;4.30;100.00;101598.94;4928890;29;19927;-78
2022/01/19 10:57:47;;;;;;;;;;;4.80;99.90;;;4.34;100.00;101595.53;4946209;29;19930;-77
2022/01/19 11:00:30;;;;;;;;;;;5.00;99.90;;;4.42;100.00;101614.81;4949996;28;19930;-79
2022/01/19 11:03:12;;;;;;;;;;;4.90;99.90;;;4.46;100.00;101597.50;4950109;29;19937;-79
2022/01/19 11:05:43;;;;;;;;;;;7.40;99.90;;;4.53;100.00;101584.63;4951329;28;20043;-78
2022/01/19 11:08:12;;;;;;;;;;;6.30;99.90;;;4.77;100.00;101583.38;4918839;29;19930;-78
2022/01/19 11:10:39;;;;;;;;;;;5.20;99.90;;;4.85;100.00;101580.94;4919184;29;19941;-78
2022/01/19 11:13:14;;;;;;;;;;;7.50;99.90;;;4.97;100.00;101575.06;4931994;29;19982;-77
2022/01/19 11:15:44;;;;;;;;;;;5.40;99.90;;;5.02;100.00;101586.44;4931752;29;19931;-77
2022/01/19 11:18:11;;;;;;;;;;;5.50;99.90;;;5.16;100.00;101575.38;4943899;29;19980;-77
2022/01/19 11:20:43;;;;;;;;;;;5.70;99.90;;;5.25;100.00;101578.16;4940846;28;19984;-78
2022/01/19 11:23:38;;;;;;;;;;;5.90;99.90;;;5.25;100.00;101586.84;4933661;29;19969;-78
2022/01/19 11:26:09;;;;;;;;;;;5.80;99.90;;;5.27;100.00;101568.63;4952154;28;20644;-77
2022/01/19 11:28:39;;;;;;;;;;;6.50;99.90;;;5.18;100.00;101571.97;4950959;29;19981;-78
2022/01/19 11:31:10;;;;;;;;;;;5.70;99.90;;;5.22;100.00;101554.59;4951533;28;20061;-78
2022/01/19 11:33:42;;;;;;;;;;;5.80;99.90;;;5.10;100.00;101555.28;4950614;29;19926;-77
2022/01/19 11:36:25;;;;;;;;;;;5.80;99.90;;;5.10;100.00;101550.97;4951106;29;20400;-78
2022/01/19 11:39:06;;;;;;;;;;;5.70;99.90;;;5.14;100.00;101549.25;4934652;29;19934;-78
2022/01/19 11:41:48;;;;;;;;;;;7.10;99.90;;;5.18;100.00;101543.25;4934609;29;19930;-78
2022/01/19 11:44:35;;;;;;;;;;;5.60;99.90;;;5.14;100.00;101544.03;4948672;28;19941;-76
2022/01/19 11:47:08;;;;;;;;;;;7.20;99.90;;;5.10;100.00;101550.06;4933168;29;19945;-76
2022/01/19 11:50:09;;;;;;;;;;;5.70;99.90;;;5.11;100.00;101544.00;4952080;28;19922;-78
2022/01/19 11:52:38;;;;;;;;;;;5.70;99.90;;;5.03;100.00;101540.38;4951435;29;20487;-79
2022/01/19 11:55:26;;;;;;;;;;;5.70;99.90;;;5.04;100.00;101536.91;4950478;28;20056;-78
2022/01/19 11:58:17;;;;;;;;;;;7.60;99.90;;;4.94;100.00;101538.50;4950256;29;20017;-78
2022/01/19 12:00:49;;;;;;;;;;;5.50;99.90;;;4.95;100.00;101532.41;4950557;28;19931;-78
2022/01/19 12:03:42;;;;;;;;;;;5.40;99.90;;;4.83;100.00;101530.44;4951585;28;19922;-77
2022/01/19 12:06:31;;;;;;;;;;;5.50;99.90;;;4.76;100.00;101532.09;4937569;29;20361;-77
2022/01/19 12:09:00;;;;;;;;;;;5.80;99.90;;;4.80;100.00;101531.28;4918679;29;19930;-79
2022/01/19 12:11:29;;;;;;;;;;;5.30;99.90;;;4.77;100.00;101535.56;4931403;28;19927;-79
2022/01/19 12:14:08;;;;;;;;;;;8.50;99.90;;;4.73;100.00;101525.94;4930238;28;19972;-78
2022/01/19 12:19:10;;;;;;;;;;;5.20;99.90;;;4.70;100.00;101520.66;4930269;29;20025;-78
2022/01/19 12:21:45;;;;;;;;;;;5.40;99.90;;;4.64;100.00;101513.59;4931529;29;20600;-78
2022/01/19 12:24:33;;;;;;;;;;;5.40;99.90;;;4.64;100.00;101518.81;4941806;28;19930;-78
2022/01/19 12:27:15;;;;;;;;;;;7.20;99.90;;;4.59;100.00;101510.91;4933387;29;20519;-78
2022/01/19 12:29:44;;;;;;;;;;;5.30;99.90;;;4.64;100.00;101514.47;4949012;28;19933;-77
2022/01/19 12:32:17;;;;;;;;;;;5.10;99.90;;;4.65;100.00;101504.94;4933857;29;20395;-79
2022/01/19 12:34:51;;;;;;;;;;;5.20;99.90;;;4.58;100.00;101496.13;4949559;29;19933;-78
2022/01/19 12:37:27;;;;;;;;;;;5.30;99.90;;;4.53;100.00;101489.94;4950233;28;19933;-78
2022/01/19 12:39:55;;;;;;;;;;;5.20;99.90;;;4.50;100.00;101484.66;4950820;28;20675;-80
2022/01/19 12:42:31;;;;;;;;;;;5.80;99.90;;;4.52;100.00;101485.56;4949027;29;19938;-77
2022/01/19 12:45:01;;;;;;;;;;;5.10;99.90;;;4.41;100.00;101477.53;4949434;29;19973;-78
2022/01/19 12:47:31;;;;;;;;;;;6.20;99.90;;;4.43;100.00;101488.84;4935429;28;19930;-78
2022/01/19 12:50:19;;;;;;;;;;;5.00;99.90;;;4.44;100.00;101474.97;4948986;28;19933;-77
2022/01/19 12:52:45;;;;;;;;;;;5.00;99.90;;;4.36;100.00;101469.63;4945374;29;19935;-77
2022/01/19 12:55:22;;;;;;;;;;;4.80;99.90;;;4.33;100.00;101468.72;4933331;29;20545;-78
2022/01/19 12:57:50;;;;;;;;;;;4.90;99.90;;;4.35;100.00;101464.41;4933926;29;19930;-77
2022/01/19 13:00:23;;;;;;;;;;;5.70;99.90;;;4.29;100.00;101453.84;4933435;29;19930;-76
2022/01/19 13:02:50;;;;;;;;;;;6.00;99.90;;;4.36;100.00;101453.97;4935288;29;20312;-76
2022/01/19 13:05:20;;;;;;;;;;;6.80;99.90;;;4.25;100.00;101450.31;4948627;28;19934;-77
2022/01/19 13:07:55;;;;;;;;;;;5.70;99.90;;;4.26;100.00;101454.69;4950278;28;19930;-74
2022/01/19 13:10:40;;;;;;;;;;;4.90;99.90;;;4.26;100.00;101465.97;4931701;28;19930;-75